Time;durP1;ratioP1;P1;durP2;ratioP2;P2;SDS_P1;SDS_P2;PMS_P1;PMS_P2;Temp;Humidity;BMP_temperature;BMP_pressure;BME280_temperature;BME280_humidity;BME280_pressure;Samples;Min_cycle;Max_cycle;Signal;HPM_P1;HPM_P2
2020/12/28 00:00:55;;;;;;;19.00;10.63;;;;;;;-0.64;75.99;98914.71;1736784;82;25645;-54
2020/12/28 00:03:21;;;;;;;17.50;9.75;;;;;;;-0.64;76.00;98922.69;1736674;82;25701;-56
2020/12/28 00:05:48;;;;;;;21.20;11.22;;;;;;;-0.63;76.25;98921.63;1737079;82;26745;-56
2020/12/28 00:08:15;;;;;;;21.23;10.20;;;;;;;-0.64;76.48;98917.38;1737293;82;25649;-55
2020/12/28 00:10:42;;;;;;;17.65;9.80;;;;;;;-0.64;76.73;98917.38;1737419;81;25591;-56
2020/12/28 00:13:08;;;;;;;21.15;11.03;;;;;;;-0.63;76.68;98922.14;1737308;81;25616;-55
2020/12/28 00:15:35;;;;;;;21.73;10.80;;;;;;;-0.63;76.67;98911.01;1737479;81;25614;-54
2020/12/28 00:18:03;;;;;;;18.05;9.55;;;;;;;-0.61;76.67;98913.40;1737372;81;26607;-55
2020/12/28 00:20:31;;;;;;;21.50;10.15;;;;;;;-0.62;76.87;98909.14;1737278;82;26314;-56
2020/12/28 00:22:58;;;;;;;21.30;11.22;;;;;;;-0.63;76.75;98908.35;1737478;81;25907;-55
2020/12/28 00:25:26;;;;;;;18.10;10.30;;;;;;;-0.67;76.66;98896.66;1737361;82;25633;-55
2020/12/28 00:27:54;;;;;;;19.40;10.68;;;;;;;-0.63;76.93;98895.07;1737350;81;25722;-54
2020/12/28 00:30:21;;;;;;;17.87;9.35;;;;;;;-0.62;76.96;98896.64;1734097;81;26229;-55
2020/12/28 00:32:48;;;;;;;17.80;9.73;;;;;;;-0.62;77.06;98891.88;1701310;84;25820;-56
2020/12/28 00:35:15;;;;;;;17.10;9.63;;;;;;;-0.62;77.09;98886.02;1731829;82;25591;-53
2020/12/28 00:37:42;;;;;;;21.50;11.12;;;;;;;-0.62;76.91;98883.36;1701308;84;25680;-54
2020/12/28 00:40:10;;;;;;;16.87;9.75;;;;;;;-0.62;77.03;98885.23;1731727;82;25809;-54
2020/12/28 00:42:37;;;;;;;18.40;10.20;;;;;;;-0.62;77.15;98877.27;1700992;83;25786;-54
2020/12/28 00:45:07;;;;;;;18.12;10.45;;;;;;;-0.62;77.06;98875.39;1731595;82;25650;-56
2020/12/28 00:47:34;;;;;;;19.37;10.45;;;;;;;-0.62;77.09;98871.41;1701201;84;25568;-56
2020/12/28 00:50:03;;;;;;;20.05;10.88;;;;;;;-0.62;77.57;98867.43;1731863;82;25721;-56
2020/12/28 00:52:30;;;;;;;21.37;11.88;;;;;;;-0.62;77.21;98865.31;1701291;84;25650;-55
2020/12/28 00:54:56;;;;;;;21.25;10.90;;;;;;;-0.62;77.57;98863.45;1731804;82;26121;-55
2020/12/28 00:57:23;;;;;;;20.92;10.23;;;;;;;-0.60;77.37;98859.20;1701198;84;25792;-54
2020/12/28 00:59:50;;;;;;;18.75;10.15;;;;;;;-0.60;77.56;98857.87;1732313;82;25736;-55
2020/12/28 01:02:17;;;;;;;16.70;10.28;;;;;;;-0.58;77.52;98843.78;1700897;84;25866;-56
2020/12/28 01:04:44;;;;;;;19.77;10.95;;;;;;;-0.56;77.62;98845.66;1732483;82;26291;-56
2020/12/28 01:07:10;;;;;;;19.98;11.10;;;;;;;-0.53;77.63;98849.61;1732817;82;26350;-54
2020/12/28 01:09:37;;;;;;;18.65;10.18;;;;;;;-0.51;77.65;98842.98;1732577;82;25568;-55
2020/12/28 01:12:04;;;;;;;21.20;11.30;;;;;;;-0.47;78.12;98840.58;1732699;82;25612;-54
2020/12/28 01:14:31;;;;;;;16.60;10.80;;;;;;;-0.46;77.85;98828.86;1732607;82;26446;-57
2020/12/28 01:16:57;;;;;;;22.25;11.48;;;;;;;-0.44;78.04;98818.24;1732627;82;26296;-54
2020/12/28 01:19:24;;;;;;;21.50;11.00;;;;;;;-0.41;78.01;98816.38;1732697;82;27077;-54
2020/12/28 01:21:51;;;;;;;18.70;11.08;;;;;;;-0.38;78.19;98805.18;1732548;82;25620;-54
2020/12/28 01:24:17;;;;;;;20.37;12.47;;;;;;;-0.36;78.19;98806.23;1732549;82;25638;-55
2020/12/28 01:26:44;;;;;;;19.27;11.57;;;;;;;-0.32;78.16;98804.64;1732581;82;26280;-54
2020/12/28 01:29:11;;;;;;;18.00;11.00;;;;;;;-0.29;78.42;98791.33;1732746;82;25645;-55
2020/12/28 01:31:38;;;;;;;20.82;11.53;;;;;;;-0.26;78.18;98797.43;1737931;81;25703;-55
2020/12/28 01:34:05;;;;;;;17.87;10.30;;;;;;;-0.23;78.32;98788.91;1737848;82;25581;-55
2020/12/28 01:36:32;;;;;;;18.45;10.95;;;;;;;-0.20;78.21;98796.34;1737980;82;25742;-56
2020/12/28 01:38:59;;;;;;;21.05;12.43;;;;;;;-0.17;78.14;98777.71;1737718;82;26119;-55
2020/12/28 01:41:25;;;;;;;19.30;10.72;;;;;;;-0.14;78.10;98784.59;1737892;82;25632;-56
2020/12/28 01:43:52;;;;;;;21.82;12.05;;;;;;;-0.12;78.16;98778.50;1737842;82;26358;-58
2020/12/28 01:46:20;;;;;;;18.85;10.63;;;;;;;-0.09;78.18;98780.58;1737721;82;25722;-55
2020/12/28 01:48:47;;;;;;;20.37;11.53;;;;;;;-0.06;78.23;98777.92;1737831;82;26394;-55
2020/12/28 01:51:14;;;;;;;16.90;9.88;;;;;;;-0.04;78.35;98769.91;1737839;81;25678;-55
2020/12/28 01:53:42;;;;;;;19.07;10.38;;;;;;;-0.01;78.60;98750.77;1737843;82;25713;-55
2020/12/28 01:56:08;;;;;;;19.90;11.03;;;;;;;0.02;78.45;98744.11;1737854;82;25983;-56
2020/12/28 01:58:35;;;;;;;18.25;11.10;;;;;;;0.05;78.34;98736.10;1737783;82;25674;-56
2020/12/28 02:01:02;;;;;;;18.77;11.12;;;;;;;0.06;78.54;98723.86;1737810;82;25701;-57
2020/12/28 02:03:29;;;;;;;19.77;10.82;;;;;;;0.09;78.38;98725.19;1737924;82;25651;-56
2020/12/28 02:05:56;;;;;;;19.07;11.08;;;;;;;0.11;78.43;98718.51;1737853;82;25672;-56
2020/12/28 02:08:22;;;;;;;18.48;11.78;;;;;;;0.13;78.43;98711.04;1737881;82;25965;-57
2020/12/28 02:10:54;;;;;;;22.80;12.30;;;;;;;0.15;78.59;98718.23;1737975;82;25758;-57
2020/12/28 02:13:22;;;;;;;17.75;10.98;;;;;;;0.16;78.34;98720.34;1737989;82;25751;-57
2020/12/28 02:15:48;;;;;;;18.55;10.90;;;;;;;0.19;78.52;98699.84;1737912;82;25628;-57
2020/12/28 02:18:19;;;;;;;18.25;10.58;;;;;;;0.22;78.59;98702.47;1738014;82;25585;-57
2020/12/28 02:20:47;;;;;;;19.07;10.63;;;;;;;0.23;78.46;98698.20;1737998;82;25868;-57
2020/12/28 02:23:14;;;;;;;17.52;10.32;;;;;;;0.26;78.54;98698.98;1737889;82;25639;-57
2020/12/28 02:25:40;;;;;;;20.23;11.65;;;;;;;0.29;78.78;98704.26;1738117;82;25887;-57
2020/12/28 02:28:07;;;;;;;18.20;11.18;;;;;;;0.31;79.07;98702.14;1737875;81;25565;-57
2020/12/28 02:30:35;;;;;;;17.40;10.95;;;;;;;0.33;78.94;98699.44;1748473;81;25715;-57
2020/12/28 02:33:02;;;;;;;16.75;10.95;;;;;;;0.36;78.84;98710.86;1762568;81;25760;-57
2020/12/28 02:35:29;;;;;;;20.88;11.95;;;;;;;0.39;78.86;98714.02;1762386;81;25643;-57
2020/12/28 02:37:56;;;;;;;18.82;10.58;;;;;;;0.41;78.75;98719.84;1762530;81;25611;-57
2020/12/28 02:40:23;;;;;;;18.52;10.90;;;;;;;0.43;78.72;98723.05;1762494;81;25928;-57
2020/12/28 02:42:49;;;;;;;21.62;11.90;;;;;;;0.44;78.78;98717.97;1762420;81;25638;-56
2020/12/28 02:45:16;;;;;;;15.50;10.40;;;;;;;0.47;78.71;98707.55;1762542;81;25714;-57
2020/12/28 02:47:43;;;;;;;18.23;10.25;;;;;;;0.48;78.74;98704.38;1762464;81;25720;-57
2020/12/28 02:50:09;;;;;;;17.98;10.55;;;;;;;0.51;78.63;98703.80;1762462;81;25731;-57
2020/12/28 02:52:36;;;;;;;18.67;10.48;;;;;;;0.53;78.66;98706.98;1762509;81;25671;-58
2020/12/28 02:55:02;;;;;;;19.57;10.98;;;;;;;0.56;78.74;98679.80;1762479;81;25858;-57
2020/12/28 02:57:29;;;;;;;17.48;10.03;;;;;;;0.58;78.72;98684.84;1762465;81;26040;-58
2020/12/28 02:59:55;;;;;;;18.57;10.63;;;;;;;0.61;78.86;98682.95;1762454;81;25630;-57
2020/12/28 03:02:22;;;;;;;16.55;10.48;;;;;;;0.62;78.66;98678.68;1762530;81;25715;-58
2020/12/28 03:04:49;;;;;;;15.75;10.88;;;;;;;0.65;78.68;98677.34;1762576;81;26333;-57
2020/12/28 03:07:15;;;;;;;15.38;9.95;;;;;;;0.66;78.79;98678.91;1762543;81;25638;-58
2020/12/28 03:09:42;;;;;;;16.23;9.43;;;;;;;0.69;78.78;98666.37;1762490;81;25947;-57
2020/12/28 03:12:09;;;;;;;16.40;10.72;;;;;;;0.70;78.78;98674.07;1762413;81;25627;-57
2020/12/28 03:14:36;;;;;;;19.62;10.45;;;;;;;0.72;78.66;98658.61;1762466;81;25641;-57
2020/12/28 03:17:02;;;;;;;17.45;10.72;;;;;;;0.76;78.67;98661.48;1762477;81;25714;-57
2020/12/28 03:19:31;;;;;;;17.25;10.68;;;;;;;0.77;78.71;98656.95;1762497;81;26392;-58
2020/12/28 03:21:58;;;;;;;18.55;10.75;;;;;;;0.78;78.78;98657.22;1762611;81;26227;-57
2020/12/28 03:24:24;;;;;;;16.40;10.23;;;;;;;0.79;78.75;98660.93;1762381;81;25662;-57
2020/12/28 03:26:51;;;;;;;16.37;10.48;;;;;;;0.81;78.62;98650.78;1762431;81;26346;-58
2020/12/28 03:29:18;;;;;;;15.32;9.90;;;;;;;0.82;78.67;98652.90;1762362;81;25686;-57
2020/12/28 03:31:44;;;;;;;17.12;10.45;;;;;;;0.81;78.59;98648.12;1743157;81;25685;-57
2020/12/28 03:34:11;;;;;;;15.08;9.80;;;;;;;0.84;78.71;98653.43;1737870;82;26215;-58
2020/12/28 03:36:37;;;;;;;14.47;9.58;;;;;;;0.81;78.68;98648.67;1737845;82;25713;-57
2020/12/28 03:39:05;;;;;;;18.25;10.53;;;;;;;0.84;78.94;98636.13;1737877;82;25609;-57
2020/12/28 03:41:32;;;;;;;17.87;9.93;;;;;;;0.83;79.01;98630.54;1737907;81;25611;-57
2020/12/28 03:43:59;;;;;;;17.10;9.75;;;;;;;0.82;78.69;98635.59;1737935;82;25680;-57
2020/12/28 03:46:26;;;;;;;16.00;9.85;;;;;;;0.81;79.25;98632.70;1737895;82;27245;-58
2020/12/28 03:48:53;;;;;;;16.60;9.28;;;;;;;0.81;79.26;98630.04;1737805;81;25798;-57
2020/12/28 03:51:19;;;;;;;15.83;9.83;;;;;;;0.82;79.51;98618.30;1737891;82;25643;-58
2020/12/28 03:53:46;;;;;;;15.23;9.88;;;;;;;0.81;79.17;98600.76;1737790;82;25695;-57
2020/12/28 03:56:13;;;;;;;15.80;10.03;;;;;;;0.80;79.15;98592.51;1737770;81;25592;-57
2020/12/28 03:58:39;;;;;;;18.87;9.93;;;;;;;0.80;79.25;98608.48;1737680;81;26337;-58
2020/12/28 04:01:06;;;;;;;17.27;10.98;;;;;;;0.79;79.37;98606.36;1737247;82;25641;-58
2020/12/28 04:03:33;;;;;;;17.90;10.05;;;;;;;0.79;79.47;98597.05;1718856;82;25939;-57
2020/12/28 04:06:04;;;;;;;18.75;10.28;;;;;;;0.81;79.52;98592.77;1737974;82;25652;-57
2020/12/28 04:08:31;;;;;;;19.92;10.35;;;;;;;0.80;79.52;98591.98;1738054;82;25734;-58
2020/12/28 04:10:58;;;;;;;17.05;10.88;;;;;;;0.80;79.74;98580.01;1738055;82;26027;-58
2020/12/28 04:13:25;;;;;;;19.48;12.40;;;;;;;0.81;79.72;98570.14;1737861;81;25655;-58
2020/12/28 04:15:53;;;;;;;16.87;10.30;;;;;;;0.80;79.66;98562.71;1737925;82;25628;-58
2020/12/28 04:18:20;;;;;;;19.70;11.38;;;;;;;0.81;79.64;98549.64;1737884;82;25925;-58
2020/12/28 04:20:46;;;;;;;18.77;11.08;;;;;;;0.80;79.69;98553.39;1737931;81;25623;-58
2020/12/28 04:23:13;;;;;;;17.50;11.25;;;;;;;0.81;79.78;98566.16;1737988;82;26295;-58
2020/12/28 04:25:40;;;;;;;17.12;10.65;;;;;;;0.82;80.25;98545.09;1737774;82;25755;-58
2020/12/28 04:28:06;;;;;;;15.80;10.50;;;;;;;0.84;80.31;98550.95;1737895;82;25732;-58
2020/12/28 04:30:33;;;;;;;18.27;10.68;;;;;;;0.85;80.30;98553.33;1737781;81;26299;-59
2020/12/28 04:32:59;;;;;;;17.92;11.73;;;;;;;0.87;80.40;98550.34;1738011;82;25663;-58
2020/12/28 04:35:26;;;;;;;20.23;12.05;;;;;;;0.90;80.53;98546.60;1737796;82;26207;-60
2020/12/28 04:37:53;;;;;;;15.45;9.25;;;;;;;0.91;80.57;98549.50;1737924;82;25579;-61
2020/12/28 04:40:19;;;;;;;21.45;11.35;;;;;;;0.93;81.24;98543.34;1737874;82;25667;-60
2020/12/28 04:42:46;;;;;;;17.67;11.93;;;;;;;0.96;81.11;98552.64;1737827;82;25661;-62
2020/12/28 04:45:13;;;;;;;17.32;11.00;;;;;;;0.99;80.74;98540.60;1737771;82;25728;-61
2020/12/28 04:47:39;;;;;;;17.73;10.23;;;;;;;0.98;80.99;98541.70;1737610;82;26650;-61
2020/12/28 04:50:06;;;;;;;17.95;10.65;;;;;;;0.98;80.91;98546.48;1737675;82;25685;-61
2020/12/28 04:52:37;;;;;;;16.37;10.40;;;;;;;0.98;80.98;98543.81;1737863;82;25299;-60
2020/12/28 04:55:04;;;;;;;17.15;11.45;;;;;;;1.00;81.04;98554.96;1737776;82;25726;-63
2020/12/28 04:57:30;;;;;;;18.37;11.73;;;;;;;1.01;81.43;98529.15;1737962;81;25599;-61
2020/12/28 04:59:57;;;;;;;18.45;11.18;;;;;;;1.04;81.05;98529.87;1737909;81;25711;-62
2020/12/28 05:02:25;;;;;;;16.65;10.82;;;;;;;1.06;81.42;98519.20;1737705;82;25636;-61
2020/12/28 05:04:52;;;;;;;18.67;11.18;;;;;;;1.11;81.24;98509.02;1737852;81;25699;-61
2020/12/28 05:07:18;;;;;;;17.10;10.58;;;;;;;1.13;81.10;98512.73;1737763;81;25684;-64
2020/12/28 05:09:47;;;;;;;15.55;10.48;;;;;;;1.16;81.49;98494.81;1738073;82;25718;-62
2020/12/28 05:12:14;;;;;;;18.82;11.70;;;;;;;1.19;81.34;98493.72;1737814;82;26588;-59
2020/12/28 05:14:40;;;;;;;19.48;11.63;;;;;;;1.24;81.77;98500.30;1718642;82;25722;-58
2020/12/28 05:17:08;;;;;;;23.05;12.13;;;;;;;1.28;81.58;98515.94;1737840;82;26346;-58
2020/12/28 05:19:36;;;;;;;16.75;10.15;;;;;;;1.32;81.33;98507.37;1737836;82;25636;-57
2020/12/28 05:22:04;;;;;;;17.30;10.65;;;;;;;1.33;81.43;98512.94;1737865;82;25747;-60
2020/12/28 05:24:31;;;;;;;17.52;11.40;;;;;;;1.35;81.50;98501.47;1737822;82;25702;-60
2020/12/28 05:26:59;;;;;;;20.50;12.00;;;;;;;1.38;81.43;98513.66;1737808;82;25621;-56
2020/12/28 05:29:27;;;;;;;19.70;12.03;;;;;;;1.41;82.04;98518.38;1737812;82;25587;-57
2020/12/28 05:31:56;;;;;;;16.48;10.63;;;;;;;1.45;81.58;98496.75;1737807;82;26243;-56
2020/12/28 05:34:26;;;;;;;17.23;10.53;;;;;;;1.46;81.59;98506.34;1737917;82;25644;-57
2020/12/28 05:36:56;;;;;;;17.10;11.00;;;;;;;1.47;81.37;98502.58;1737807;82;26002;-57
2020/12/28 05:39:26;;;;;;;18.85;11.25;;;;;;;1.48;81.28;98498.03;1737829;82;25576;-57
2020/12/28 05:41:57;;;;;;;;;;;;;;;1.47;81.41;98496.46;1740679;82;25623;-56
2020/12/28 05:44:26;;;;;;;19.55;10.63;;;;;;;1.47;81.47;98495.91;1738025;82;26391;-57
2020/12/28 05:47:12;;;;;;;18.70;11.20;;;;;;;1.46;81.36;98492.20;1738134;82;25684;-56
2020/12/28 05:49:44;;;;;;;19.67;11.90;;;;;;;1.46;81.46;98488.20;1738104;82;25703;-57
2020/12/28 05:52:13;;;;;;;17.73;10.43;;;;;;;1.45;81.52;98486.09;1738016;82;25766;-57
2020/12/28 05:54:41;;;;;;;21.80;12.75;;;;;;;1.47;81.84;98480.47;1738211;81;25699;-55
2020/12/28 05:57:09;;;;;;;21.20;12.25;;;;;;;1.48;82.15;98492.17;1738119;82;25548;-57
2020/12/28 05:59:37;;;;;;;21.48;12.40;;;;;;;1.51;81.84;98486.78;1738117;82;25699;-57
2020/12/28 06:02:07;;;;;;;19.00;11.60;;;;;;;1.51;82.09;98492.12;1738180;82;25906;-57
2020/12/28 06:04:34;;;;;;;18.05;12.18;;;;;;;1.53;81.79;98488.61;1738117;82;25687;-57
2020/12/28 06:07:03;;;;;;;19.50;10.72;;;;;;;1.52;82.01;98493.71;1738002;82;25642;-56
2020/12/28 06:09:31;;;;;;;21.27;13.03;;;;;;;1.52;81.92;98503.04;1738151;82;25716;-57
2020/12/28 06:12:09;;;;;;;23.25;13.30;;;;;;;1.51;82.12;98491.34;1738057;82;25628;-57
2020/12/28 06:14:40;;;;;;;21.25;11.78;;;;;;;1.51;82.23;98490.78;1738322;82;26259;-57
2020/12/28 06:17:12;;;;;;;19.32;12.37;;;;;;;1.52;82.04;98495.59;1738164;82;25655;-56
2020/12/28 06:19:41;;;;;;;22.60;12.68;;;;;;;1.51;82.65;98498.78;1738170;82;25636;-56
2020/12/28 06:22:21;;;;;;;18.60;12.10;;;;;;;1.52;82.46;98486.27;1738366;82;25652;-55
2020/12/28 06:25:01;;;;;;;22.30;13.62;;;;;;;1.52;82.34;98491.05;1738011;82;25661;-56
2020/12/28 06:27:29;;;;;;;;;;;;;;;1.51;82.00;98490.78;1740628;82;25704;-55
2020/12/28 06:30:19;;;;;;;25.48;12.82;;;;;;;1.52;82.44;98492.93;1737918;82;25617;-55
2020/12/28 06:32:50;;;;;;;18.62;11.45;;;;;;;1.53;82.18;98491.83;1737947;81;25675;-56
2020/12/28 06:35:18;;;;;;;21.45;13.55;;;;;;;1.52;82.35;98491.59;1737917;82;25646;-55
2020/12/28 06:40:34;;;;;;;19.70;12.53;;;;;;;1.58;82.54;98511.17;1847607;76;34390;-58
2020/12/28 06:43:15;;;;;;;21.87;13.45;;;;;;;1.51;82.49;98508.11;1817752;78;25636;-58
2020/12/28 06:45:54;;;;;;;25.97;14.23;;;;;;;1.51;82.74;98516.10;1817742;78;25715;-57
2020/12/28 06:48:26;;;;;;;23.27;13.70;;;;;;;1.52;82.49;98511.03;1817606;78;25675;-58
2020/12/28 06:50:54;;;;;;;18.92;11.73;;;;;;;1.53;82.61;98517.14;1817657;78;25664;-58
2020/12/28 06:53:26;;;;;;;22.77;12.07;;;;;;;1.53;82.24;98526.47;1817680;78;25671;-58
2020/12/28 06:55:53;;;;;;;21.20;13.05;;;;;;;1.52;82.33;98523.02;1817645;78;25640;-55
2020/12/28 06:58:23;;;;;;;22.20;13.25;;;;;;;1.52;82.40;98523.02;1817742;78;25955;-57
2020/12/28 07:00:55;;;;;;;20.60;13.03;;;;;;;1.52;83.02;98533.69;1817621;78;25719;-58
2020/12/28 07:03:22;;;;;;;21.42;12.73;;;;;;;1.54;82.64;98532.06;1814425;78;25701;-56
2020/12/28 07:05:53;;;;;;;21.97;13.03;;;;;;;1.56;82.82;98523.23;1817641;78;25710;-57
2020/12/28 07:08:26;;;;;;;19.98;11.83;;;;;;;1.56;82.64;98517.34;1816197;78;25661;-57
2020/12/28 07:11:02;;;;;;;25.15;13.40;;;;;;;1.56;82.84;98529.34;1817615;78;26932;-57
2020/12/28 07:13:30;;;;;;;21.90;13.22;;;;;;;1.58;82.54;98527.72;1817522;78;26353;-58
2020/12/28 07:16:07;;;;;;;19.55;11.90;;;;;;;1.58;82.93;98521.84;1817538;78;25572;-56
2020/12/28 07:18:35;;;;;;;22.50;13.93;;;;;;;1.59;83.14;98512.77;1817568;78;25218;-58
2020/12/28 07:21:04;;;;;;;23.83;13.28;;;;;;;1.61;82.79;98511.14;1817685;78;25684;-57
2020/12/28 07:23:33;;;;;;;22.22;13.25;;;;;;;1.62;82.75;98496.75;1817715;78;25900;-59
2020/12/28 07:26:11;;;;;;;23.67;14.40;;;;;;;1.61;82.96;98513.27;1817532;78;25621;-58
2020/12/28 07:28:40;;;;;;;19.87;11.45;;;;;;;1.61;82.94;98499.16;1785890;78;25673;-57
2020/12/28 07:31:07;;;;;;;20.62;13.13;;;;;;;1.61;83.08;98503.94;1786180;78;25854;-58
2020/12/28 07:33:45;;;;;;;24.52;13.25;;;;;;;1.62;83.09;98496.20;1817660;78;25503;-58
2020/12/28 07:36:15;;;;;;;22.40;13.05;;;;;;;1.63;82.91;98491.09;1817607;78;25899;-59
2020/12/28 07:38:48;;;;;;;21.62;13.05;;;;;;;1.64;82.84;98490.03;1817497;78;25752;-59
2020/12/28 07:41:21;;;;;;;20.27;12.03;;;;;;;1.64;83.09;98474.59;1817688;78;25712;-58
2020/12/28 07:43:54;;;;;;;25.20;13.55;;;;;;;1.65;82.84;98482.30;1817511;78;26001;-56
2020/12/28 07:46:35;;;;;;;21.17;12.88;;;;;;;1.65;83.07;98481.48;1808359;78;25645;-52
2020/12/28 07:49:21;;;;;;;20.57;12.55;;;;;;;1.67;83.10;98479.34;1783034;80;26298;-54
2020/12/28 07:52:13;;;;;;;21.57;13.18;;;;;;;1.68;82.99;98471.56;1784779;77;25653;-53
2020/12/28 07:54:48;;;;;;;21.07;12.88;;;;;;;1.69;83.08;98462.50;1847696;77;25719;-52
2020/12/28 07:57:22;;;;;;;20.52;12.78;;;;;;;1.72;83.20;98449.11;1821236;77;25543;-56
2020/12/28 08:00:00;;;;;;;19.15;12.40;;;;;;;1.77;83.07;98463.16;1815135;79;25614;-58
2020/12/28 08:02:41;;;;;;;21.27;12.58;;;;;;;1.82;83.34;98470.25;1814480;79;25776;-58
2020/12/28 08:05:10;;;;;;;22.17;13.40;;;;;;;1.88;83.41;98457.62;1813046;79;25866;-58
2020/12/28 08:07:37;;;;;;;22.35;13.48;;;;;;;1.97;83.32;98449.17;1815226;79;26367;-58
2020/12/28 08:10:07;;;;;;;21.57;12.90;;;;;;;2.02;83.13;98443.73;1815286;78;25657;-57
2020/12/28 08:12:53;;;;;;;20.48;12.93;;;;;;;2.05;83.01;98450.59;1815346;78;25697;-58
2020/12/28 08:15:29;;;;;;;19.75;12.40;;;;;;;2.16;83.16;98447.73;1815212;78;25943;-56
2020/12/28 08:18:12;;;;;;;18.48;11.35;;;;;;;2.38;83.29;98455.81;1815137;79;25601;-57
2020/12/28 08:20:40;;;;;;;19.05;11.45;;;;;;;2.64;82.79;98455.79;1815205;78;25562;-53
2020/12/28 08:23:08;;;;;;;20.10;12.78;;;;;;;2.91;82.44;98453.05;1815207;79;25723;-57
2020/12/28 08:25:36;;;;;;;20.90;12.45;;;;;;;3.03;82.02;98447.69;1815489;77;25205;-55
2020/12/28 08:28:03;;;;;;;19.45;11.88;;;;;;;3.06;81.46;98458.55;1815150;78;25752;-56
2020/12/28 08:30:32;;;;;;;19.65;12.93;;;;;;;3.03;81.21;98460.52;1814897;79;25732;-57
2020/12/28 08:33:01;;;;;;;19.50;12.70;;;;;;;3.08;81.15;98463.59;1815432;79;25577;-57
2020/12/28 08:35:30;;;;;;;19.50;11.97;;;;;;;3.17;80.87;98467.13;1815343;79;25604;-57
2020/12/28 08:37:57;;;;;;;17.87;12.45;;;;;;;3.29;81.11;98462.58;1815200;79;25626;-55
2020/12/28 08:40:24;;;;;;;16.90;10.23;;;;;;;3.40;80.62;98449.73;1817524;78;25837;-55
2020/12/28 08:42:57;;;;;;;20.68;12.43;;;;;;;3.44;80.17;98447.48;1818545;78;25642;-51
2020/12/28 08:45:26;;;;;;;17.48;11.55;;;;;;;3.48;80.21;98451.12;1818756;78;25660;-52
2020/12/28 08:47:57;;;;;;;22.48;13.03;;;;;;;3.49;80.06;98450.56;1818804;78;25702;-53
2020/12/28 08:50:26;;;;;;;17.20;11.08;;;;;;;3.47;79.80;98438.83;1818389;78;25693;-53
2020/12/28 08:52:54;;;;;;;17.92;10.95;;;;;;;3.44;79.77;98437.33;1818708;77;27078;-51
2020/12/28 08:55:23;;;;;;;23.62;12.30;;;;;;;3.40;79.77;98427.80;1818887;77;25547;-56
2020/12/28 08:57:59;;;;;;;20.10;12.18;;;;;;;3.38;79.83;98420.64;1826351;78;25617;-55
2020/12/28 09:00:27;;;;;;;21.42;12.00;;;;;;;3.36;79.84;98427.62;1826452;78;25680;-53
2020/12/28 09:02:57;;;;;;;19.65;11.43;;;;;;;3.33;79.84;98425.56;1826387;78;25654;-53
2020/12/28 09:05:24;;;;;;;19.07;10.72;;;;;;;3.33;79.96;98422.11;1826477;78;25797;-52
2020/12/28 09:07:52;;;;;;;17.02;10.78;;;;;;;3.31;79.99;98421.07;1826306;78;25586;-53
2020/12/28 09:10:19;;;;;;;16.12;11.08;;;;;;;3.36;80.08;98410.25;1826506;78;25661;-55
2020/12/28 09:12:45;;;;;;;18.37;11.48;;;;;;;3.40;80.11;98399.73;1825411;78;25565;-52
2020/12/28 09:15:12;;;;;;;19.37;11.20;;;;;;;3.45;80.07;98400.16;1824676;78;25665;-56
2020/12/28 09:17:39;;;;;;;17.73;10.53;;;;;;;3.47;80.03;98413.44;1824610;78;25773;-56
2020/12/28 09:20:07;;;;;;;18.45;12.10;;;;;;;3.48;79.92;98402.22;1824591;78;25602;-53
2020/12/28 09:22:34;;;;;;;18.82;12.23;;;;;;;3.49;79.88;98403.78;1824748;78;25578;-56
2020/12/28 09:25:01;;;;;;;22.13;11.78;;;;;;;3.52;80.06;98404.51;1824636;78;25628;-55
2020/12/28 09:27:28;;;;;;;19.73;12.23;;;;;;;3.58;80.05;98407.30;1824787;78;25611;-55
2020/12/28 09:29:55;;;;;;;19.23;11.38;;;;;;;3.61;79.95;98417.91;1824682;78;26238;-56
2020/12/28 09:32:22;;;;;;;22.48;11.80;;;;;;;3.63;79.79;98405.82;1824422;78;25577;-51
2020/12/28 09:34:49;;;;;;;19.70;11.38;;;;;;;3.67;79.80;98416.68;1824623;78;25812;-53
2020/12/28 09:37:15;;;;;;;19.67;11.28;;;;;;;3.76;79.82;98412.70;1824601;78;25593;-56
2020/12/28 09:39:42;;;;;;;17.05;10.95;;;;;;;3.78;79.68;98425.20;1822243;78;25574;-56
2020/12/28 09:42:09;;;;;;;16.37;9.85;;;;;;;3.82;79.55;98424.84;1815448;79;25688;-56
2020/12/28 09:44:35;;;;;;;16.17;10.00;;;;;;;4.01;79.00;98409.31;1815441;78;25745;-53
2020/12/28 09:47:02;;;;;;;15.28;9.88;;;;;;;4.06;79.02;98388.33;1815343;79;25619;-55
2020/12/28 09:49:29;;;;;;;16.32;10.53;;;;;;;4.09;78.96;98385.03;1815400;79;25601;-57
2020/12/28 09:51:56;;;;;;;16.50;10.45;;;;;;;4.14;79.10;98377.38;1815455;78;25635;-54
2020/12/28 09:54:23;;;;;;;16.12;9.80;;;;;;;4.23;79.00;98367.49;1815413;78;26757;-56
2020/12/28 09:56:50;;;;;;;14.95;10.03;;;;;;;4.38;78.59;98370.27;1815394;79;25732;-51
2020/12/28 09:59:17;;;;;;;17.30;10.38;;;;;;;4.58;78.43;98368.83;1815446;79;25699;-53
2020/12/28 10:01:45;;;;;;;16.57;10.53;;;;;;;4.83;77.67;98358.63;1815422;79;25657;-51
2020/12/28 10:04:12;;;;;;;16.12;9.85;;;;;;;5.40;78.42;98365.59;1815431;78;25638;-56
2020/12/28 10:06:40;;;;;;;17.45;10.15;;;;;;;5.83;77.25;98345.60;1815337;78;25903;-53
2020/12/28 10:09:10;;;;;;;15.08;9.68;;;;;;;6.09;75.60;98326.10;1815312;78;25726;-48
2020/12/28 10:11:38;;;;;;;18.02;10.05;;;;;;;6.27;74.76;98335.39;1815586;78;34812;-52
2020/12/28 10:14:05;;;;;;;15.13;9.95;;;;;;;6.34;74.49;98312.83;1815296;78;25639;-52
2020/12/28 10:16:32;;;;;;;13.30;8.68;;;;;;;6.58;73.91;98305.42;1815485;79;26019;-52
2020/12/28 10:19:00;;;;;;;14.15;8.80;;;;;;;7.06;71.33;98299.92;1815406;78;25934;-55
2020/12/28 10:21:28;;;;;;;12.20;8.70;;;;;;;7.72;71.53;98298.16;1815308;79;25637;-51
2020/12/28 10:23:55;;;;;;;13.38;9.15;;;;;;;8.36;70.84;98290.36;1815483;78;25650;-51
2020/12/28 10:26:28;;;;;;;11.20;7.87;;;;;;;8.93;69.91;98284.40;1815401;79;25660;-50
2020/12/28 10:28:56;;;;;;;12.25;7.97;;;;;;;9.31;68.17;98273.02;1815469;78;25654;-50
2020/12/28 10:31:24;;;;;;;13.50;8.10;;;;;;;9.65;65.78;98271.25;1815426;79;25912;-48
2020/12/28 10:33:51;;;;;;;11.00;8.58;;;;;;;9.93;66.54;98259.50;1815321;79;25739;-45
2020/12/28 10:36:24;;;;;;;9.53;6.80;;;;;;;10.13;64.07;98249.50;1815424;78;25634;-51
2020/12/28 10:38:53;;;;;;;10.00;7.42;;;;;;;10.31;62.90;98270.13;1815427;79;25594;-50
2020/12/28 10:41:30;;;;;;;;;;;;;;;10.68;65.90;98251.55;1817465;78;25648;-56
2020/12/28 10:43:58;;;;;;;9.63;7.10;;;;;;;11.05;63.71;98267.80;1815463;79;26138;-53
2020/12/28 10:46:25;;;;;;;11.10;7.58;;;;;;;11.27;62.62;98262.97;1815409;79;25665;-52
2020/12/28 10:48:52;;;;;;;8.98;6.95;;;;;;;11.14;61.66;98262.37;1815453;78;25715;-51
2020/12/28 10:51:19;;;;;;;10.23;7.12;;;;;;;10.79;61.61;98253.84;1815311;79;25792;-57
2020/12/28 10:53:45;;;;;;;10.43;7.12;;;;;;;10.22;60.96;98246.03;1815411;78;25695;-52
2020/12/28 10:56:13;;;;;;;10.85;7.78;;;;;;;9.88;61.86;98236.27;1815446;78;25727;-52
2020/12/28 10:58:40;;;;;;;9.20;7.12;;;;;;;9.94;63.67;98217.87;1815312;79;25656;-52
2020/12/28 11:01:07;;;;;;;12.55;7.70;;;;;;;9.77;63.53;98215.78;1815469;78;25962;-52
2020/12/28 11:03:34;;;;;;;13.05;7.92;;;;;;;9.26;63.30;98217.98;1815339;79;25725;-53
2020/12/28 11:06:02;;;;;;;12.65;7.83;;;;;;;8.72;64.28;98223.42;1815425;79;25723;-48
2020/12/28 11:08:30;;;;;;;9.83;7.35;;;;;;;8.23;64.80;98223.66;1815322;79;25693;-54
2020/12/28 11:10:57;;;;;;;10.32;7.33;;;;;;;7.70;65.73;98227.75;1815353;78;25650;-53
2020/12/28 11:13:24;;;;;;;11.05;8.08;;;;;;;7.30;66.53;98223.09;1815376;79;26362;-56
2020/12/28 11:15:51;;;;;;;13.58;9.88;;;;;;;6.91;67.33;98215.38;1815378;79;25713;-51
2020/12/28 11:18:17;;;;;;;10.08;7.37;;;;;;;6.61;68.21;98204.02;1815404;78;25714;-49
2020/12/28 11:20:44;;;;;;;14.55;8.83;;;;;;;6.33;69.02;98203.30;1815348;79;27097;-54
2020/12/28 11:23:11;;;;;;;14.50;8.48;;;;;;;6.07;69.67;98187.98;1815307;78;25873;-56
2020/12/28 11:25:38;;;;;;;12.73;8.88;;;;;;;5.84;70.54;98174.91;1815374;79;25780;-53
2020/12/28 11:28:05;;;;;;;12.58;8.75;;;;;;;5.68;71.08;98177.95;1815636;78;25709;-56
2020/12/28 11:30:32;;;;;;;14.13;8.28;;;;;;;5.51;71.53;98172.94;1815622;79;25771;-54
2020/12/28 11:32:58;;;;;;;11.33;7.67;;;;;;;5.36;72.11;98162.79;1815442;79;25896;-51
2020/12/28 11:35:25;;;;;;;13.30;8.68;;;;;;;5.24;72.79;98160.28;1815346;79;26014;-54